Double Oak, Texas
Current Conditions -  °F | °C
As of 12:53 AM on Saturday 25 Oct 2014 (Local Time) from KDFW Reporting Station
Few Clouds Few Clouds  
Wind Chill: 69°   Ceiling: Unl
Heat Index: 69°   Visibility: 10mi
Dew Point: 59°   Wind: 8mph
Humidity: 70%   Direction: 180°S
Pressure: 30.09"   Gusts: NA
Location:  33.0461°N, 96.9938°W
Report Text: KDFW 250553Z 18007KT 10SM FEW250 21/15 A3009 RMK AO2 SLP182 T02060150 10261 20206 402890156 51002
Loading
Personal Weather Stations






























Interactive Weather Map
Tropical Storm Tracking
New forecast layout! Learn more

10-Day Weather Forecast

Advertisements
Track Severe Weather on mobile